Fehn Lyra — YLOH — position and weather

sailwx.info

Track history (hours):
 
Tides and Currents Weather Stations Pressure Air Temp Water Temp Dewpoint Dewpoint Depression Visibility Wind Speed Wind Dir Waves Ship Positions

Fehn Lyra

Last reported at 2017-Oct-16 20:57 UTC. Time now 2017-Oct-16 22:35 UTC.
Position N 56°10' W 002°03'.

Length 89 m; draft 6.1 m.

Type: Cargo ship. MMSI: 275472000.

Date/timePositionNaut miles runAvg speedWind from/ knotsBaromVisibWave heightAir tempDewpointWater temp
2017-Oct-16 20:57N 56°10' W 002°03'2 4.8
2017-Oct-16 20:29N 56°08' W 002°04'3 5.6
2017-Oct-16 20:00N 56°06' W 002°05'3 5.5
2017-Oct-16 19:30N 56°03' W 002°05'3 5.5
2017-Oct-16 19:00N 56°00' W 002°04'3 6.1
2017-Oct-16 18:29N 55°57' W 002°03'3 7.0
2017-Oct-16 18:00N 55°54' W 002°00'3 6.9
2017-Oct-16 17:30N 55°51' W 001°56'3 6.8
2017-Oct-16 17:00N 55°50' W 001°51'3 6.6
2017-Oct-16 16:30N 55°48' W 001°46'3 6.3
2017-Oct-16 16:00N 55°46' W 001°41'3 6.5
2017-Oct-16 15:30N 55°44' W 001°37'9 5.8
2017-Oct-16 14:00N 55°38' W 001°26'2 4.3
2017-Oct-16 13:30N 55°36' W 001°23'2 4.5
2017-Oct-16 12:59N 55°35' W 001°20'2 4.4
2017-Oct-16 12:30N 55°33' W 001°18'2 4.0
2017-Oct-16 12:00N 55°32' W 001°15'2 4.1
2017-Oct-16 11:29N 55°31' W 001°12'2 4.6
2017-Oct-16 10:59N 55°31' W 001°08'68 9.4
2017-Oct-16 03:49N 54°39' E 000°08'310.5
2017-Oct-16 03:30N 54°36' E 000°10'510.2
2017-Oct-16 03:00N 54°31' E 000°14'510.0
2017-Oct-16 02:30N 54°27' E 000°18'5 9.6
2017-Oct-16 02:00N 54°22' E 000°21'4 8.6
2017-Oct-16 01:30N 54°19' E 000°24'4 8.5
2017-Oct-16 01:00N 54°15' E 000°28'5 8.6
2017-Oct-16 00:27N 54°11' E 000°31'68 9.6
2017-Oct-15 17:19N 53°09' E 001°21'3 8.3
2017-Oct-15 17:00N 53°07' E 001°23'4 8.1
2017-Oct-15 16:30N 53°03' E 001°27'4 7.9
2017-Oct-15 16:00N 52°60' E 001°31'4 7.6
2017-Oct-15 15:30N 52°57' E 001°35'4 7.8
2017-Oct-15 15:00N 52°54' E 001°39'9 9.0
2017-Oct-15 14:00N 52°48' E 001°50'5 9.6
2017-Oct-15 13:30N 52°45' E 001°55'611.6
2017-Oct-15 13:00N 52°39' E 001°56'611.8
2017-Oct-15 12:30N 52°33' E 001°54'712.5
2017-Oct-15 11:59N 52°26' E 001°53'612.2
2017-Oct-15 11:30N 52°21' E 001°52'912.3
2017-Oct-15 10:46N 52°12' E 001°51'312.3
2017-Oct-15 10:30N 52°08' E 001°50'612.5
2017-Oct-15 10:00N 52°02' E 001°49'612.5
2017-Oct-15 09:30N 51°56' E 001°48'611.9
2017-Oct-15 09:00N 51°50' E 001°48'611.3
2017-Oct-15 08:30N 51°44' E 001°49'611.0
2017-Oct-15 08:00N 51°39' E 001°49'510.8
2017-Oct-15 07:30N 51°34' E 001°48'510.7
2017-Oct-15 07:00N 51°28' E 001°45'510.5
2017-Oct-15 06:30N 51°23' E 001°43'5 9.4
2017-Oct-15 06:00N 51°19' E 001°41'4 8.3
2017-Oct-15 05:30N 51°15' E 001°40'4 7.8
2017-Oct-15 05:00N 51°11' E 001°37'3 6.4
2017-Oct-15 04:30N 51°08' E 001°38'3 6.2
2017-Oct-15 04:00N 51°05' E 001°38'3 6.9
2017-Oct-15 03:30N 51°03' E 001°34'4 7.1
2017-Oct-15 03:00N 50°60' E 001°31'3 6.8
2017-Oct-15 02:30N 50°57' E 001°27'4 6.9
2017-Oct-15 01:58N 50°54' E 001°24'3 7.4
2017-Oct-15 01:30N 50°51' E 001°23'4 8.0
2017-Oct-15 00:58N 50°47' E 001°21'4 8.1
2017-Oct-15 00:30N 50°43' E 001°20'6 8.3
2017-Oct-14 23:45N 50°39' E 001°13'2 8.6
2017-Oct-14 23:29N 50°37' E 001°10'43 8.8
2017-Oct-14 18:38N 50°22' E 000°08'1 9.8
2017-Oct-14 18:30N 50°21' E 000°06'610.4
2017-Oct-14 17:55N 50°19' W 000°03'511.2
2017-Oct-14 17:29N 50°18' W 000°11'1211.7
2017-Oct-14 16:26N 50°15' W 000°29'612.2
2017-Oct-14 15:55N 50°13' W 000°39'512.3
2017-Oct-14 15:30N 50°11' W 000°46'612.4
2017-Oct-14 15:01N 50°10' W 000°56'612.3
2017-Oct-14 14:30N 50°08' W 001°05'1312.0
2017-Oct-14 13:26N 50°05' W 001°24'511.4
2017-Oct-14 13:00N 50°03' W 001°31'510.9
2017-Oct-14 12:31N 50°02' W 001°40'5 9.7
2017-Oct-14 12:01N 50°01' W 001°47'5 9.6
2017-Oct-14 11:30N 49°59' W 001°54'5 9.1
2017-Oct-14 11:00N 49°58' W 002°01'4 8.5
2017-Oct-14 10:29N 49°57' W 002°07'25 7.8
2017-Oct-14 07:15N 49°49' W 002°45'2 8.9
2017-Oct-14 06:59N 49°48' W 002°48'4 9.2
2017-Oct-14 06:30N 49°47' W 002°55'5 9.0
2017-Oct-14 05:58N 49°44' W 003°01'4 9.3
2017-Oct-14 05:30N 49°42' W 003°07'5 9.5
2017-Oct-14 04:59N 49°40' W 003°13'5 9.5
2017-Oct-14 04:30N 49°37' W 003°19'6 9.7
2017-Oct-14 03:53N 49°34' W 003°27'5 9.8
2017-Oct-14 03:23N 49°32' W 003°34'13 9.9
2017-Oct-14 02:03N 49°26' W 003°52'510.2
2017-Oct-14 01:33N 49°23' W 003°59'210.3
2017-Oct-14 01:22N 49°22' W 004°01'2110.3
2017-Oct-13 23:20N 49°12' W 004°29'1010.4
2017-Oct-13 22:24N 49°07' W 004°42'1810.4
2017-Oct-13 20:39N 48°58' W 005°06'310.6
2017-Oct-13 20:24N 48°57' W 005°10'410.7
2017-Oct-13 20:00N 48°55' W 005°15'610.9
2017-Oct-13 19:25N 48°51' W 005°23'510.7
2017-Oct-13 19:00N 48°49' W 005°29'  
2017-Oct-11 00:00N 39°09' W 009°51'5 9.7
2017-Oct-10 23:30N 39°04' W 009°51'5 9.3
2017-Oct-10 23:00N 38°60' W 009°51'5 9.2
2017-Oct-10 22:31N 38°55' W 009°51'5 9.4
2017-Oct-10 22:00N 38°50' W 009°51'5 9.3
2017-Oct-10 21:30N 38°46' W 009°51'5 9.9
2017-Oct-10 21:01N 38°41' W 009°50'510.2
2017-Oct-10 20:30N 38°36' W 009°49'5 9.9
2017-Oct-10 20:00N 38°31' W 009°47'5 9.7
2017-Oct-10 19:30N 38°26' W 009°45'510.0
2017-Oct-10 19:00N 38°22' W 009°44'5 9.7
2017-Oct-10 18:30N 38°17' W 009°43'510.1
2017-Oct-10 18:00N 38°12' W 009°42'5 9.6
2017-Oct-10 17:30N 38°07' W 009°40'5 9.6
2017-Oct-10 17:00N 38°03' W 009°39'5 9.9
2017-Oct-10 16:30N 37°58' W 009°37'510.2
2017-Oct-10 16:00N 37°53' W 009°36'510.0
2017-Oct-10 15:30N 37°48' W 009°34'5 9.9
2017-Oct-10 15:00N 37°43' W 009°33'1010.0
2017-Oct-10 14:00N 37°33' W 009°30'5 9.7
2017-Oct-10 13:30N 37°29' W 009°28'5 9.4
2017-Oct-10 13:00N 37°24' W 009°27'5 9.3
2017-Oct-10 12:30N 37°20' W 009°26'5 9.3
2017-Oct-10 12:00N 37°15' W 009°24'5 9.4
2017-Oct-10 11:30N 37°10' W 009°23'5 9.5
2017-Oct-10 11:00N 37°06' W 009°22'5 9.8
2017-Oct-10 10:30N 37°01' W 009°20'5 9.7
2017-Oct-10 10:00N 36°56' W 009°19'5 9.3
2017-Oct-10 09:30N 36°52' W 009°17'5 9.2
2017-Oct-10 09:00N 36°49' W 009°12'510.0
2017-Oct-10 08:30N 36°45' W 009°08'510.2
2017-Oct-10 08:00N 36°44' W 009°02'510.4
2017-Oct-10 07:30N 36°42' W 008°56'510.2
2017-Oct-10 07:00N 36°40' W 008°50'510.7
2017-Oct-10 06:30N 36°39' W 008°44'510.9
2017-Oct-10 06:00N 36°37' W 008°37'510.1
2017-Oct-10 05:29N 36°36' W 008°31'510.1
2017-Oct-10 04:59N 36°34' W 008°25'510.1
2017-Oct-10 04:30N 36°33' W 008°19'510.0
2017-Oct-10 04:00N 36°31' W 008°13'510.0
2017-Oct-10 03:30N 36°30' W 008°07'510.2
2017-Oct-10 03:00N 36°28' W 008°01'510.3
2017-Oct-10 02:30N 36°27' W 007°55'510.0
2017-Oct-10 02:00N 36°25' W 007°49'510.2
2017-Oct-10 01:29N 36°24' W 007°43'510.2
2017-Oct-10 00:58N 36°22' W 007°36'  
2017-Oct-07 18:42N 37°21' W 000°52'411.1
2017-Oct-07 18:21N 37°23' W 000°49'410.9
2017-Oct-07 18:00N 37°26' W 000°45'1010.1
2017-Oct-07 17:00N 37°33' W 000°36'510.2
2017-Oct-07 16:29N 37°37' W 000°31'510.3
2017-Oct-07 16:00N 37°41' W 000°28'510.1
2017-Oct-07 15:30N 37°45' W 000°24'  
Track history (hours):
 
Tides and Currents Weather Stations Pressure Air Temp Water Temp Dewpoint Dewpoint Depression Visibility Wind Speed Wind Dir Waves Ship Positions

Fehn Lyra

Last reported at 2017-Oct-16 20:57 UTC. Time now 2017-Oct-16 22:35 UTC.
Position N 56°10' W 002°03'.

Length 89 m; draft 6.1 m.

Type: Cargo ship. MMSI: 275472000.

Date/timePositionNaut miles runAvg speedWind from/ knotsBaromVisibWave heightAir tempDewpointWater temp
2017-Oct-16 20:57N 56°10' W 002°03'2 4.8
2017-Oct-16 20:29N 56°08' W 002°04'3 5.6
2017-Oct-16 20:00N 56°06' W 002°05'3 5.5
2017-Oct-16 19:30N 56°03' W 002°05'3 5.5
2017-Oct-16 19:00N 56°00' W 002°04'3 6.1
2017-Oct-16 18:29N 55°57' W 002°03'3 7.0
2017-Oct-16 18:00N 55°54' W 002°00'3 6.9
2017-Oct-16 17:30N 55°51' W 001°56'3 6.8
2017-Oct-16 17:00N 55°50' W 001°51'3 6.6
2017-Oct-16 16:30N 55°48' W 001°46'3 6.3
2017-Oct-16 16:00N 55°46' W 001°41'3 6.5
2017-Oct-16 15:30N 55°44' W 001°37'9 5.8
2017-Oct-16 14:00N 55°38' W 001°26'2 4.3
2017-Oct-16 13:30N 55°36' W 001°23'2 4.5
2017-Oct-16 12:59N 55°35' W 001°20'2 4.4
2017-Oct-16 12:30N 55°33' W 001°18'2 4.0
2017-Oct-16 12:00N 55°32' W 001°15'2 4.1
2017-Oct-16 11:29N 55°31' W 001°12'2 4.6
2017-Oct-16 10:59N 55°31' W 001°08'68 9.4
2017-Oct-16 03:49N 54°39' E 000°08'310.5
2017-Oct-16 03:30N 54°36' E 000°10'510.2
2017-Oct-16 03:00N 54°31' E 000°14'510.0
2017-Oct-16 02:30N 54°27' E 000°18'5 9.6
2017-Oct-16 02:00N 54°22' E 000°21'4 8.6
2017-Oct-16 01:30N 54°19' E 000°24'4 8.5
2017-Oct-16 01:00N 54°15' E 000°28'5 8.6
2017-Oct-16 00:27N 54°11' E 000°31'68 9.6
2017-Oct-15 17:19N 53°09' E 001°21'3 8.3
2017-Oct-15 17:00N 53°07' E 001°23'4 8.1
2017-Oct-15 16:30N 53°03' E 001°27'4 7.9
2017-Oct-15 16:00N 52°60' E 001°31'4 7.6
2017-Oct-15 15:30N 52°57' E 001°35'4 7.8
2017-Oct-15 15:00N 52°54' E 001°39'9 9.0
2017-Oct-15 14:00N 52°48' E 001°50'5 9.6
2017-Oct-15 13:30N 52°45' E 001°55'611.6
2017-Oct-15 13:00N 52°39' E 001°56'611.8
2017-Oct-15 12:30N 52°33' E 001°54'712.5
2017-Oct-15 11:59N 52°26' E 001°53'612.2
2017-Oct-15 11:30N 52°21' E 001°52'912.3
2017-Oct-15 10:46N 52°12' E 001°51'312.3
2017-Oct-15 10:30N 52°08' E 001°50'612.5
2017-Oct-15 10:00N 52°02' E 001°49'612.5
2017-Oct-15 09:30N 51°56' E 001°48'611.9
2017-Oct-15 09:00N 51°50' E 001°48'611.3
2017-Oct-15 08:30N 51°44' E 001°49'611.0
2017-Oct-15 08:00N 51°39' E 001°49'510.8
2017-Oct-15 07:30N 51°34' E 001°48'510.7
2017-Oct-15 07:00N 51°28' E 001°45'510.5
2017-Oct-15 06:30N 51°23' E 001°43'5 9.4
2017-Oct-15 06:00N 51°19' E 001°41'4 8.3
2017-Oct-15 05:30N 51°15' E 001°40'4 7.8
2017-Oct-15 05:00N 51°11' E 001°37'3 6.4
2017-Oct-15 04:30N 51°08' E 001°38'3 6.2
2017-Oct-15 04:00N 51°05' E 001°38'3 6.9
2017-Oct-15 03:30N 51°03' E 001°34'4 7.1
2017-Oct-15 03:00N 50°60' E 001°31'3 6.8
2017-Oct-15 02:30N 50°57' E 001°27'4 6.9
2017-Oct-15 01:58N 50°54' E 001°24'3 7.4
2017-Oct-15 01:30N 50°51' E 001°23'4 8.0
2017-Oct-15 00:58N 50°47' E 001°21'4 8.1
2017-Oct-15 00:30N 50°43' E 001°20'6 8.3
2017-Oct-14 23:45N 50°39' E 001°13'2 8.6
2017-Oct-14 23:29N 50°37' E 001°10'43 8.8
2017-Oct-14 18:38N 50°22' E 000°08'1 9.8
2017-Oct-14 18:30N 50°21' E 000°06'610.4
2017-Oct-14 17:55N 50°19' W 000°03'511.2
2017-Oct-14 17:29N 50°18' W 000°11'1211.7
2017-Oct-14 16:26N 50°15' W 000°29'612.2
2017-Oct-14 15:55N 50°13' W 000°39'512.3
2017-Oct-14 15:30N 50°11' W 000°46'612.4
2017-Oct-14 15:01N 50°10' W 000°56'612.3
2017-Oct-14 14:30N 50°08' W 001°05'1312.0
2017-Oct-14 13:26N 50°05' W 001°24'511.4
2017-Oct-14 13:00N 50°03' W 001°31'510.9
2017-Oct-14 12:31N 50°02' W 001°40'5 9.7
2017-Oct-14 12:01N 50°01' W 001°47'5 9.6
2017-Oct-14 11:30N 49°59' W 001°54'5 9.1
2017-Oct-14 11:00N 49°58' W 002°01'4 8.5
2017-Oct-14 10:29N 49°57' W 002°07'25 7.8
2017-Oct-14 07:15N 49°49' W 002°45'2 8.9
2017-Oct-14 06:59N 49°48' W 002°48'4 9.2
2017-Oct-14 06:30N 49°47' W 002°55'5 9.0
2017-Oct-14 05:58N 49°44' W 003°01'4 9.3
2017-Oct-14 05:30N 49°42' W 003°07'5 9.5
2017-Oct-14 04:59N 49°40' W 003°13'5 9.5
2017-Oct-14 04:30N 49°37' W 003°19'6 9.7
2017-Oct-14 03:53N 49°34' W 003°27'5 9.8
2017-Oct-14 03:23N 49°32' W 003°34'13 9.9
2017-Oct-14 02:03N 49°26' W 003°52'510.2
2017-Oct-14 01:33N 49°23' W 003°59'210.3
2017-Oct-14 01:22N 49°22' W 004°01'2110.3
2017-Oct-13 23:20N 49°12' W 004°29'1010.4
2017-Oct-13 22:24N 49°07' W 004°42'1810.4
2017-Oct-13 20:39N 48°58' W 005°06'310.6
2017-Oct-13 20:24N 48°57' W 005°10'410.7
2017-Oct-13 20:00N 48°55' W 005°15'610.9
2017-Oct-13 19:25N 48°51' W 005°23'510.7
2017-Oct-13 19:00N 48°49' W 005°29'  
2017-Oct-11 00:00N 39°09' W 009°51'5 9.7
2017-Oct-10 23:30N 39°04' W 009°51'5 9.3
2017-Oct-10 23:00N 38°60' W 009°51'5 9.2
2017-Oct-10 22:31N 38°55' W 009°51'5 9.4
2017-Oct-10 22:00N 38°50' W 009°51'5 9.3
2017-Oct-10 21:30N 38°46' W 009°51'5 9.9
2017-Oct-10 21:01N 38°41' W 009°50'510.2
2017-Oct-10 20:30N 38°36' W 009°49'5 9.9
2017-Oct-10 20:00N 38°31' W 009°47'5 9.7
2017-Oct-10 19:30N 38°26' W 009°45'510.0
2017-Oct-10 19:00N 38°22' W 009°44'5 9.7
2017-Oct-10 18:30N 38°17' W 009°43'510.1
2017-Oct-10 18:00N 38°12' W 009°42'5 9.6
2017-Oct-10 17:30N 38°07' W 009°40'5 9.6
2017-Oct-10 17:00N 38°03' W 009°39'5 9.9
2017-Oct-10 16:30N 37°58' W 009°37'510.2
2017-Oct-10 16:00N 37°53' W 009°36'510.0
2017-Oct-10 15:30N 37°48' W 009°34'5 9.9
2017-Oct-10 15:00N 37°43' W 009°33'1010.0
2017-Oct-10 14:00N 37°33' W 009°30'5 9.7
2017-Oct-10 13:30N 37°29' W 009°28'5 9.4
2017-Oct-10 13:00N 37°24' W 009°27'5 9.3
2017-Oct-10 12:30N 37°20' W 009°26'5 9.3
2017-Oct-10 12:00N 37°15' W 009°24'5 9.4
2017-Oct-10 11:30N 37°10' W 009°23'5 9.5
2017-Oct-10 11:00N 37°06' W 009°22'5 9.8
2017-Oct-10 10:30N 37°01' W 009°20'5 9.7
2017-Oct-10 10:00N 36°56' W 009°19'5 9.3
2017-Oct-10 09:30N 36°52' W 009°17'5 9.2
2017-Oct-10 09:00N 36°49' W 009°12'510.0
2017-Oct-10 08:30N 36°45' W 009°08'510.2
2017-Oct-10 08:00N 36°44' W 009°02'510.4
2017-Oct-10 07:30N 36°42' W 008°56'510.2
2017-Oct-10 07:00N 36°40' W 008°50'510.7
2017-Oct-10 06:30N 36°39' W 008°44'510.9
2017-Oct-10 06:00N 36°37' W 008°37'510.1
2017-Oct-10 05:29N 36°36' W 008°31'510.1
2017-Oct-10 04:59N 36°34' W 008°25'510.1
2017-Oct-10 04:30N 36°33' W 008°19'510.0
2017-Oct-10 04:00N 36°31' W 008°13'510.0
2017-Oct-10 03:30N 36°30' W 008°07'510.2
2017-Oct-10 03:00N 36°28' W 008°01'510.3
2017-Oct-10 02:30N 36°27' W 007°55'510.0
2017-Oct-10 02:00N 36°25' W 007°49'510.2
2017-Oct-10 01:29N 36°24' W 007°43'510.2
2017-Oct-10 00:58N 36°22' W 007°36'  
2017-Oct-07 18:42N 37°21' W 000°52'411.1
2017-Oct-07 18:21N 37°23' W 000°49'410.9
2017-Oct-07 18:00N 37°26' W 000°45'1010.1
2017-Oct-07 17:00N 37°33' W 000°36'510.2
2017-Oct-07 16:29N 37°37' W 000°31'510.3
2017-Oct-07 16:00N 37°41' W 000°28'510.1
2017-Oct-07 15:30N 37°45' W 000°24'  

Dump ship's entire track history